x

Yucatan Basin - 120 Nm Ese Of Cozumel, Mx (42056) Weather Station

12:20 - Mon 23rd Jan 2017 All times are CST. -6 hours from GMT.

  • Wind
    20mph, 27mph gusts
  • Sea Temp 81°f
  • Aire Temp 78°f
  • Sea Pressure 1011.5mb
  •  Yucatan Basin - 120 Nm Ese Of Cozumel, Mx
  •  Yucatan Basin - 120 Nm Ese Of Cozumel, Mx

More Historic Weather Station data

Upgrade to MSW Pro to gain access to the past 30 days of data for over 8000 Wavebouys and Weather Stations around the globe.

Join Pro

Comparision Forecast

View Surf forecast
   
lun 01/23 12:20  -   -   -  20 27 mph 1011.5mb 81f 78f
12:10  -   -   -  20 27 mph 1011.8mb 81f 78f
12:00  -   -   -  20 27 mph 1011.9mb 81f 78f
11:50 7ft 7s 6s 20 25 mph 1012mb 81f 78f
11:40 7ft  -  6s 22 27 mph 1012.1mb 81f 78f
11:30  -   -   -  22 27 mph 1012.3mb 81f 78f
11:20  -   -   -  22 29 mph 1012.3mb 81f 78f
11:10  -   -   -  22 27 mph 1012.3mb 81f 78f
11:00  -   -   -  20 27 mph 1012.4mb 81f 78f
10:50 7ft 7s 6s 22 27 mph 1012.5mb 81f 78f
10:40  -   -   -  22 29 mph 1012.5mb 81f 78f
10:30  -   -   -  20 25 mph 1012.5mb 81f 78f
10:20  -   -   -  22 29 mph 1012.5mb 81f 78f
10:10  -   -   -  22 29 mph 1012.5mb 81f 78f
10:00  -   -   -  22 29 mph 1012.5mb 81f 78f
9:50 8ft 7s 6s 25 29 mph 1012.4mb 81f 78f
9:40 8ft  -  6s 25 31 mph 1012.4mb 80f 78f
9:30  -   -   -  25 31 mph 1012.4mb 81f 78f
9:20  -   -   -  22 29 mph 1012.3mb 81f 78f
9:10  -   -   -  22 29 mph 1012.3mb 81f 78f
9:00  -   -   -  22 29 mph 1012.3mb 81f 78f
8:50 6.5ft 6s 5s 22 29 mph 1012.1mb 81f 78f
8:40  -   -   -  22 27 mph 1012mb 81f 78f
8:30  -   -   -  22 29 mph 1012mb - 78f
8:20  -   -   -  22 27 mph 1012mb 80f 78f
8:10  -   -   -  22 27 mph 1012mb 81f 78f
8:00  -   -   -  22 27 mph 1011.8mb 81f 78f
7:40 6ft  -  5s 22 29 mph 1011.3mb 80f 78f
7:10  -   -   -  22 27 mph 1010.9mb - 78f
7:00  -   -   -  22 27 mph 1010.6mb 81f 78f
6:50 5ft 8s 5s 22 29 mph 1010.5mb 81f 78f
6:40  -   -   -  20 27 mph 1010.3mb 81f 78f
6:30  -   -   -  20 27 mph 1010.1mb 80f 78f
6:20  -   -   -  20 25 mph 1010mb 81f 79f
6:10  -   -   -  20 27 mph 1010mb 80f 79f
6:00  -   -   -  20 27 mph 1009.9mb 81f 79f
5:50 5ft 8s 5s 20 29 mph 1009.8mb 81f 79f
5:40  -   -   -  20 27 mph 1009.8mb 81f 79f
5:30  -   -   -  20 27 mph 1009.8mb 81f 79f
5:20  -   -   -  22 27 mph 1009.6mb 81f 78f
5:10  -   -   -  18 27 mph 1009.5mb 81f 78f
5:00  -   -   -  18 25 mph 1009.3mb 81f 79f
4:50 5ft 8s 5s 16 18 mph 1009.1mb 81f 80f
4:40 5ft  -  5s 16 18 mph 1009mb 81f 80f
4:30  -   -   -  16 18 mph 1008.9mb 81f 80f
4:20  -   -   -  16 18 mph 1008.9mb 81f 80f
4:10  -   -   -  16 18 mph 1008.5mb 81f 80f
4:00  -   -   -  16 18 mph 1008.5mb 81f 80f
3:50 5.5ft 8s 6s 16 20 mph 1008.1mb 81f 80f
3:40 5.5ft  -  6s 16 20 mph 1008.1mb 81f 80f
3:30  -   -   -  16 20 mph 1008.1mb 81f 80f
3:20  -   -   -  16 20 mph 1008.3mb 81f 80f
3:10  -   -   -  16 18 mph 1008.4mb 81f 80f
3:00  -   -   -  16 18 mph 1008.4mb 81f 80f
2:50 5.5ft 8s 6s 16 20 mph 1008.4mb 81f 80f
2:40  -   -   -  16 20 mph 1008.1mb 81f 80f
2:30  -   -   -  16 20 mph 1008mb 81f 80f
2:20  -   -   -  16 20 mph 1008.3mb 81f 80f
2:10  -   -   -  16 18 mph 1008.4mb 81f 80f
2:00  -   -   -  16 20 mph 1008.5mb 81f 80f
1:50 5.5ft 7s 6s 16 20 mph 1008.6mb 81f 80f
1:40  -   -   -  16 18 mph 1008.8mb 81f 80f
1:30  -   -   -  13 16 mph 1009mb 81f 80f
1:20  -   -   -  13 18 mph 1009.4mb 81f 80f
1:10  -   -   -  13 18 mph 1009.5mb 81f 80f
1:00  -   -   -  13 16 mph 1009.5mb 81f 80f
12:50 6ft 8s 6s 13 16 mph 1009.6mb 81f 80f
12:40 6ft  -  6s 13 16 mph 1009.6mb 81f 80f
12:30  -   -   -  13 16 mph 1009.9mb 81f 80f
12:20  -   -   -  13 18 mph 1009.9mb 81f 80f
12:10  -   -   -  13 18 mph 1009.9mb 81f 80f
12:00  -   -   -  16 20 mph 1009.8mb 81f 80f
dom 01/22 11:50 6.5ft 8s 6s 16 20 mph 1009.3mb 81f 80f
11:40 6.5ft  -  6s 16 22 mph 1009mb 81f 80f
11:30  -   -   -  18 22 mph 1009mb 81f 80f
11:20  -   -   -  18 22 mph 1009mb 81f 80f
11:10  -   -   -  20 25 mph 1009mb 81f 80f
11:00  -   -   -  18 25 mph 1009mb 81f 80f
10:50 6.5ft 8s 6s 18 22 mph 1008.9mb 81f 80f
10:40 6.5ft  -  6s 20 25 mph 1008.9mb 81f 80f
10:30  -   -   -  20 25 mph 1008.8mb 81f 80f
10:20  -   -   -  20 25 mph 1008.8mb 81f 80f
10:10  -   -   -  20 25 mph 1008.8mb 81f 80f
10:00  -   -   -  20 25 mph 1008.9mb 81f 80f
9:50 6.5ft 8s 6s 20 22 mph 1008.8mb 81f 80f
9:40 6.5ft  -  6s 20 25 mph 1008.8mb 81f 80f
9:30  -   -   -  20 25 mph 1008.8mb 81f 80f
9:20  -   -   -  20 25 mph 1008.8mb 81f 80f
9:10  -   -   -  20 25 mph 1008.9mb 81f 80f
9:00  -   -   -  20 22 mph 1009mb 81f 80f
8:50 7ft 8s 6s 18 22 mph 1009mb 81f 80f
8:40 7ft  -  6s 18 22 mph 1009.1mb 81f 80f
8:30  -   -   -  18 22 mph 1009.1mb 81f 80f
8:20  -   -   -  18 22 mph 1009mb 81f 80f
8:10  -   -   -  18 22 mph 1009mb 81f 80f
8:00  -   -   -  18 22 mph 1008.9mb 81f 80f
7:50 7ft 8s 6s 18 22 mph 1008.8mb 81f 80f
7:40  -   -   -  18 25 mph 1008.6mb 81f 80f
7:30  -   -   -  18 25 mph 1008.5mb 81f 80f
7:20  -   -   -  18 22 mph 1008.5mb - -
7:10  -   -   -  18 25 mph 1008.5mb 81f 80f
7:00  -   -   -  18 22 mph 1008.5mb 81f 80f
6:50 8ft 9s 6s 20 25 mph 1008.4mb 81f 80f
6:40 8ft  -  6s 18 25 mph 1008.1mb 81f 80f
6:30  -   -   -  18 25 mph 1008.1mb 81f 80f
6:20  -   -   -  20 25 mph 1007.9mb 81f 80f
6:10  -   -   -  20 25 mph 1007.9mb 81f 80f
6:00  -   -   -  20 25 mph 1007.8mb 81f 80f
5:50 8ft 8s 6s 22 27 mph 1007.6mb 81f 80f
5:40  -   -   -  20 27 mph 1007.5mb 81f 80f
5:30  -   -   -  22 27 mph 1007.4mb 81f 80f
5:20  -   -   -  22 27 mph 1007.3mb 81f 80f
5:10  -   -   -  22 29 mph 1007.3mb 81f 81f
5:00  -   -   -  22 27 mph 1007.1mb 81f 81f
4:50 9.5ft 8s 6s 22 29 mph 1007.1mb 81f 81f
4:40  -   -   -  22 29 mph 1007mb 81f 81f
4:30  -   -   -  25 29 mph 1006.8mb 81f 81f
4:20  -   -   -  22 29 mph 1006.9mb 81f 81f
4:10  -   -   -  25 29 mph 1006.8mb 81f 81f
4:00  -   -   -  22 29 mph 1006.9mb 81f 81f
3:50 8ft 8s 6s 22 29 mph 1006.8mb 81f 81f
3:40  -   -   -  25 29 mph 1006.9mb 81f 81f
3:30  -   -   -  25 31 mph 1006.9mb 81f 81f
3:20  -   -   -  25 31 mph 1006.8mb 81f 81f
3:10  -   -   -  25 31 mph 1006.8mb 81f 81f
3:00  -   -   -  25 31 mph 1006.8mb 81f 81f
2:50 9.5ft 8s 6s 25 31 mph 1006.6mb 81f 81f
2:40  -   -   -  25 31 mph 1006.6mb 81f 81f
2:30  -   -   -  25 29 mph 1007mb 81f 81f
2:20  -   -   -  22 29 mph 1007mb 81f 81f
2:10  -   -   -  22 29 mph 1007.4mb 81f 81f
2:00  -   -   -  25 29 mph 1007.4mb 81f 81f
1:50 9.5ft 8s 6s 22 27 mph 1007.5mb 81f 81f
1:40 9.5ft  -  6s 25 29 mph 1007.8mb 81f 81f
1:30  -   -   -  22 29 mph 1007.8mb 81f 81f
1:20  -   -   -  25 29 mph 1007.9mb 81f 81f
1:10  -   -   -  25 29 mph 1007.8mb 81f 81f
1:00  -   -   -  25 29 mph 1008mb 81f 81f
12:50 9ft 8s 6s 25 31 mph 1008.3mb 81f 81f
12:40 9ft  -  6s 25 29 mph 1008.4mb 81f 81f
12:30  -   -   -  25 31 mph 1008.4mb 81f 81f
12:20  -   -   -  25 31 mph 1008.5mb 81f 81f
12:10  -   -   -  25 31 mph 1008.5mb 81f 81f
12:00  -   -   -  27 31 mph 1008.6mb 81f 81f
11:50 9.5ft 8s 6s 25 31 mph 1009mb 81f 81f
11:40 9.5ft  -  6s 25 31 mph 1009.1mb 81f 81f
11:30  -   -   -  27 34 mph 1009.4mb 81f 81f
11:20  -   -   -  25 31 mph 1009.5mb 81f 81f
11:10  -   -   -  25 31 mph 1009.5mb 81f 81f
11:00  -   -   -  25 29 mph 1009.5mb 81f 81f
10:50 9ft 8s 6s 27 31 mph 1009.6mb 81f 81f
10:40 9ft  -  6s 25 31 mph 1009.9mb 81f 81f
10:30  -   -   -  25 31 mph 1010mb 81f 81f
10:20  -   -   -  25 31 mph 1010mb 81f 81f
10:10  -   -   -  25 34 mph 1010mb 81f 81f
10:00  -   -   -  25 31 mph 1010mb 81f 81f
9:50 9ft 7s 6s 25 31 mph 1010.1mb 81f 81f
9:40 9ft  -  6s 25 31 mph 1010mb 81f 81f
9:30  -   -   -  25 31 mph 1010.1mb 81f 81f
9:20  -   -   -  25 31 mph 1010mb 81f 81f
9:10  -   -   -  27 31 mph 1010mb 81f 81f
9:00  -   -   -  27 34 mph 1010mb 81f 81f
8:50 9.5ft 8s 6s 27 34 mph 1009.9mb 81f 81f
8:40 9.5ft  -  6s 27 31 mph 1009.8mb 81f 81f
8:30  -   -   -  27 31 mph 1009.5mb - 81f
8:20  -   -   -  27 34 mph 1009.5mb 81f 81f
8:10  -   -   -  27 34 mph 1009.3mb 81f 81f
8:00  -   -   -  27 34 mph 1009.1mb 81f 81f
7:50 8ft 8s 6s 27 34 mph 1009.3mb 81f 81f
7:40 8ft  -  6s 27 31 mph 1009mb 81f 81f
7:30  -   -   -  25 31 mph 1009mb 81f 81f
7:20  -   -   -  25 31 mph 1008.9mb 81f 81f
7:10  -   -   -  25 31 mph 1008.9mb - 81f
7:00  -   -   -  25 31 mph 1008.9mb 81f 81f
6:50 8ft 7s 6s 22 29 mph 1008.9mb 81f 81f
6:40 8ft  -  6s 22 29 mph 1008.8mb 81f 81f
6:30  -   -   -  25 31 mph 1008.5mb 81f 81f
6:20  -   -   -  27 31 mph 1008.5mb 81f 81f
6:10  -   -   -  27 34 mph 1008.5mb 81f 81f
6:00  -   -   -  27 31 mph 1008.1mb 81f 80f
5:50 7.5ft 7s 6s 25 31 mph 1008.1mb 81f 81f
5:40 7.5ft  -  6s 25 31 mph 1008.3mb 81f 81f
5:30  -   -   -  25 29 mph 1008.4mb 81f 81f
5:20  -   -   -  25 29 mph 1008.4mb 81f 81f
5:10  -   -   -  22 29 mph 1008.5mb 81f 81f
5:00  -   -   -  22 27 mph 1008.6mb 81f 81f
4:50 7ft 7s 6s 22 29 mph 1008.5mb 81f 81f
4:40 7ft  -  6s 22 27 mph 1008.6mb 81f 81f
4:30  -   -   -  20 27 mph 1008.8mb - -
4:20  -   -   -  20 27 mph 1008.8mb 81f 81f
4:10  -   -   -  22 29 mph 1008.8mb 81f 81f
4:00  -   -   -  20 25 mph 1008.8mb 81f 81f
3:50 8ft 8s 6s 20 27 mph 1008.8mb 81f 81f
3:40  -   -   -  20 25 mph 1008.8mb 81f 81f
3:30  -   -   -  20 27 mph 1008.8mb 81f 81f
3:20  -   -   -  20 25 mph 1008.9mb 81f 81f
3:10  -   -   -  20 27 mph 1008.9mb 81f 81f
3:00  -   -   -  20 25 mph 1008.9mb 81f 81f
2:50 7ft 7s 6s 20 25 mph 1009mb 81f 81f
2:40  -   -   -  20 25 mph 1009.1mb 81f 81f
2:30  -   -   -  20 22 mph 1009.1mb 81f 81f
2:20  -   -   -  20 25 mph 1009mb 81f 81f
2:10  -   -   -  20 25 mph 1009.1mb 81f 81f
2:00  -   -   -  20 25 mph 1009.1mb 81f 81f
1:50 7ft 7s 6s 20 25 mph 1009.3mb 81f 81f
1:40 7ft  -  6s 20 25 mph 1009.3mb 81f 81f
1:30  -   -   -  20 25 mph 1009.5mb 81f 81f
1:20  -   -   -  20 25 mph 1009.5mb 81f 81f
1:10  -   -   -  18 25 mph 1009.8mb 81f 81f
1:00  -   -   -  20 25 mph 1009.8mb 81f 81f
12:50 7ft 7s 6s 20 27 mph 1009.8mb 81f 81f
12:40 7ft  -  6s 20 25 mph 1009.9mb 81f 81f
12:30  -   -   -  20 25 mph 1009.9mb 81f 81f
12:20  -   -   -  20 27 mph 1009.9mb 81f 81f
12:10  -   -   -  20 27 mph 1010mb 81f 81f
12:00  -   -   -  20 25 mph 1010mb 81f 81f
sáb 01/21 11:50 6.5ft 8s 6s 22 27 mph 1009.9mb 81f 81f
11:40 6.5ft  -  6s 22 27 mph 1009.9mb 81f 81f
11:30  -   -   -  22 27 mph 1009.8mb - 81f
11:20  -   -   -  20 27 mph 1010mb 81f 81f
11:10  -   -   -  22 29 mph 1010mb 81f 81f
11:00  -   -   -  22 29 mph 1010mb 81f 81f
10:50 7.5ft 7s 6s 22 27 mph 1010mb 81f 81f
10:40 7.5ft  -  6s 22 27 mph 1010mb 81f 81f
10:30  -   -   -  20 27 mph 1010mb 81f 81f
10:20  -   -   -  22 27 mph 1010.1mb 81f 81f
10:10  -   -   -  22 27 mph 1010.3mb 81f 81f
10:00  -   -   -  20 27 mph 1010.1mb 81f 81f
9:50 6.5ft 8s 6s 22 27 mph 1010mb 81f 81f
9:40  -   -   -  20 27 mph 1010.3mb 81f 81f
9:30  -   -   -  20 25 mph 1010.3mb 81f 81f
9:20  -   -   -  22 29 mph 1010mb 81f 81f
9:10  -   -   -  22 27 mph 1010.1mb 81f 81f
9:00  -   -   -  22 29 mph 1010mb 81f 81f
8:50 7ft 8s 6s 22 29 mph 1010.1mb 81f 81f
8:40  -   -   -  22 29 mph 1010mb 81f 81f
8:30  -   -   -  22 27 mph 1010.1mb 81f 81f
8:20  -   -   -  22 27 mph 1010.1mb 81f 81f
8:10  -   -   -  22 27 mph 1010mb 81f 81f
8:00  -   -   -  22 29 mph 1010mb 81f 81f
7:50 7.5ft 8s 6s 22 27 mph 1010mb 81f 81f
7:40  -   -   -  22 29 mph 1010mb 81f 81f
7:30  -   -   -  22 27 mph 1010mb 81f 81f
7:20  -   -   -  22 27 mph 1009.9mb 81f 81f
7:10  -   -   -  22 29 mph 1009.8mb 81f 81f
7:00  -   -   -  22 27 mph 1009.6mb 81f 81f
6:50 7ft 7s 6s 22 29 mph 1009.5mb 81f 81f
6:40  -   -   -  20 27 mph 1009.8mb 81f 81f
6:30  -   -   -  22 27 mph 1009.6mb 81f 81f
6:20  -   -   -  22 27 mph 1009.5mb 81f 81f
6:10  -   -   -  22 27 mph 1009.4mb 81f 81f
6:00  -   -   -  22 27 mph 1009.1mb 81f 81f
5:50 7ft 7s 6s 25 29 mph 1009mb 81f 81f
5:40 7ft  -  6s 22 29 mph 1009mb 81f 81f
5:30  -   -   -  25 29 mph 1009mb - 81f
5:20  -   -   -  22 29 mph 1008.9mb 81f 81f
5:10  -   -   -  25 29 mph 1008.9mb 81f 81f
5:00  -   -   -  25 31 mph 1008.8mb 81f 81f
4:50 8ft 7s 6s 25 29 mph 1008.8mb 81f 81f
4:40 8ft  -  6s 25 31 mph 1008.9mb 81f 81f
4:30  -   -   -  22 29 mph 1008.6mb 81f 81f
4:20  -   -   -  22 29 mph 1009mb 81f 81f
4:10  -   -   -  25 29 mph 1008.8mb 81f 81f
4:00  -   -   -  22 29 mph 1008.9mb 81f 81f
3:50 7ft 7s 5s 25 29 mph 1008.8mb 81f 81f
3:40  -   -   -  22 29 mph 1008.8mb 81f 81f
3:30  -   -   -  25 29 mph 1008.9mb 81f 81f
3:20  -   -   -  25 31 mph 1008.9mb 81f 81f
3:10  -   -   -  22 29 mph 1009mb 81f 81f
3:00  -   -   -  25 29 mph 1009mb 81f 81f
2:50 8ft 7s 6s 25 29 mph 1009.1mb 81f 81f
2:40 8ft  -  6s 25 29 mph 1009.1mb 81f 81f
2:30  -   -   -  25 29 mph 1009.4mb - 81f
2:20  -   -   -  22 29 mph 1009.4mb 81f 81f
2:10  -   -   -  25 31 mph 1009.3mb 81f 81f
2:00  -   -   -  25 34 mph 1009.3mb 81f 81f
1:50 7.5ft 7s 5s 27 34 mph 1009.4mb 81f 81f
1:40 7.5ft  -  5s 27 34 mph 1009.4mb 81f 81f
1:30  -   -   -  27 31 mph 1009.6mb 81f 81f
1:20  -   -   -  27 34 mph 1009.8mb 81f 81f
1:10  -   -   -  27 34 mph 1009.8mb 81f 81f
1:00  -   -   -  27 34 mph 1010mb 81f 81f
12:50 8ft 7s 5s 27 34 mph 1010mb 81f 81f
12:40 8ft  -  5s 27 34 mph 1010.4mb 81f 81f
12:30  -   -   -  27 34 mph 1010.4mb 81f 81f
12:20  -   -   -  27 34 mph 1010.6mb 81f 81f
12:10  -   -   -  25 31 mph 1010.9mb 81f 81f
12:00  -   -   -  27 34 mph 1011mb 81f 81f
11:50 7ft 7s 5s 27 34 mph 1011.1mb 81f 81f
11:40 7ft  -  5s 27 34 mph 1011.3mb 81f 81f
11:30  -   -   -  29 36 mph 1011.5mb 81f 81f
11:20  -   -   -  27 38 mph 1011.8mb 81f 81f
11:10  -   -   -  27 34 mph 1011.9mb 81f 81f
11:00  -   -   -  27 31 mph 1012.1mb 81f 81f
10:50 6.5ft 6s 5s 27 34 mph 1012.3mb 81f 81f
10:40 6.5ft  -  5s 29 38 mph 1012.4mb 81f 81f
10:30  -   -   -  27 34 mph 1012.4mb 81f 81f
10:20  -   -   -  29 36 mph 1012.5mb 81f 81f
10:10  -   -   -  29 36 mph 1012.5mb 81f 81f
10:00  -   -   -  27 36 mph 1012.5mb 81f 81f
9:50 6ft 6s 5s 25 31 mph 1013mb 81f 81f
9:40 6ft  -  5s 25 31 mph 1013.1mb 81f 81f
9:30  -   -   -  25 31 mph 1013.4mb 81f 81f
9:20  -   -   -  25 31 mph 1013.3mb 81f 81f
9:10  -   -   -  25 31 mph 1013.3mb 81f 81f
9:00  -   -   -  25 31 mph 1013.3mb 81f 80f
8:50 5ft 6s 5s 25 29 mph 1013mb 81f 80f
8:40  -   -   -  25 29 mph 1013mb 81f 80f
8:30  -   -   -  25 31 mph 1013mb 81f 80f
8:20  -   -   -  25 31 mph 1013mb 81f 80f
8:10  -   -   -  22 29 mph 1012.8mb 81f 80f
8:00  -   -   -  25 29 mph 1012.8mb 81f 80f
7:50 5ft 6s 5s 25 29 mph 1012.8mb 81f 80f
7:40  -   -   -  22 27 mph 1012.5mb 81f 80f
7:30  -   -   -  22 27 mph 1012.8mb 81f 80f
7:20  -   -   -  22 27 mph 1012.6mb 81f 80f
7:10  -   -   -  20 27 mph 1012.8mb 81f 80f
7:00  -   -   -  22 27 mph 1012.6mb 81f 80f
6:50 4.5ft 5s 5s 22 25 mph 1012.5mb 81f 80f
6:40 4.5ft  -  5s 22 27 mph 1012.5mb 81f 80f
6:30  -   -   -  22 27 mph 1012.5mb - 80f
6:20  -   -   -  22 25 mph 1012.3mb 81f 80f
6:10  -   -   -  20 25 mph 1012.3mb 81f 80f
6:00  -   -   -  20 27 mph 1012.1mb 81f 80f
5:50 5ft 6s 5s 20 27 mph 1012.1mb 81f 80f
5:40 5ft  -  5s 20 25 mph 1012.1mb 81f 80f
5:30  -   -   -  20 25 mph 1012.1mb 81f 80f
5:20  -   -   -  20 25 mph 1012.3mb 81f 80f
5:10  -   -   -  20 25 mph 1012.1mb 81f 80f
5:00  -   -   -  20 25 mph 1012.1mb 81f 80f
4:50 4.5ft 6s 5s 20 22 mph 1012.3mb 81f 80f
4:40 4.5ft  -  5s 18 22 mph 1012.3mb 81f 80f
4:30  -   -   -  18 25 mph 1012.1mb 81f 80f
4:20  -   -   -  20 25 mph 1012.1mb 81f 80f
4:10  -   -   -  18 22 mph 1012mb 81f 80f
4:00  -   -   -  20 25 mph 1012mb 81f 80f
3:50 4.5ft 6s 5s 20 22 mph 1012mb 81f 80f
3:40 4.5ft  -  5s 20 22 mph 1012.1mb 81f 80f
3:30  -   -   -  20 25 mph 1012mb 81f 80f
3:20  -   -   -  18 22 mph 1012mb 81f 80f
3:10  -   -   -  18 22 mph 1012mb 81f 80f
3:00  -   -   -  18 22 mph 1012mb 81f 80f
2:50 4.5ft 6s 5s 18 22 mph 1012.1mb 81f 80f
2:40 4.5ft  -  5s 18 22 mph 1012.3mb 81f 80f
2:30  -   -   -  18 22 mph 1012.3mb 81f 80f
2:20  -   -   -  18 22 mph 1012.4mb 81f 80f
2:10  -   -   -  20 25 mph 1012.5mb 81f 80f
2:00  -   -   -  20 25 mph 1012.4mb 81f 80f
1:50 4.5ft 5s 5s 18 22 mph 1012.5mb 81f 80f
1:40 4.5ft  -  5s 20 22 mph 1012.5mb 81f 80f
1:30  -   -   -  20 25 mph 1012.6mb 81f 80f
1:20  -   -   -  18 22 mph 1012.8mb 81f 80f
1:10  -   -   -  18 22 mph 1013mb 81f 80f
1:00  -   -   -  18 22 mph 1013mb 81f 80f
12:50 4.5ft 5s 4s 18 22 mph 1013mb 81f 80f
12:40  -   -   -  20 22 mph 1013mb 81f 80f
12:30  -   -   -  18 22 mph 1013.3mb 81f 80f
12:20  -   -   -  18 22 mph 1013.4mb 81f 80f
12:10  -   -   -  18 20 mph 1013.5mb 81f 80f
12:00  -   -   -  18 20 mph 1013.5mb 81f 80f
vie 01/20 11:50 4.5ft 5s 5s 18 22 mph 1013.6mb - 80f
11:40 4.5ft  -  5s 18 22 mph 1013.6mb - 80f
11:30  -   -   -  20 25 mph 1013.6mb 81f 80f
11:20  -   -   -  18 25 mph 1013.6mb 81f 80f
11:10  -   -   -  18 22 mph 1013.6mb 81f 80f
11:00  -   -   -  18 22 mph 1013.6mb 81f 80f
10:50 4.5ft 6s 5s 18 22 mph 1013.6mb 81f 80f
10:40  -   -   -  18 22 mph 1013.6mb 81f 80f
10:30  -   -   -  18 22 mph 1013.8mb 81f 80f
10:20  -   -   -  18 22 mph 1013.9mb 81f 80f
10:10  -   -   -  18 22 mph 1014mb 81f 80f
10:00  -   -   -  18 22 mph 1014.1mb 81f 80f
9:50 4.5ft 6s 5s 20 22 mph 1014.1mb 81f 80f
9:40  -   -   -  18 22 mph 1014.3mb 81f 80f
9:30  -   -   -  18 22 mph 1014.3mb 81f 80f
9:20  -   -   -  18 22 mph 1014.4mb 81f 80f
9:10  -   -   -  18 22 mph 1014.4mb 81f 80f
9:00  -   -   -  18 22 mph 1014.4mb 81f 80f
8:50 4.5ft 5s 5s 18 22 mph 1014.3mb 81f 80f
8:40 4.5ft  -  5s 18 22 mph 1014.3mb 81f 80f
8:30  -   -   -  18 22 mph 1014mb 81f 80f
8:20  -   -   -  18 22 mph 1013.9mb 81f 80f
8:10  -   -   -  18 22 mph 1013.6mb 81f 80f
8:00  -   -   -  18 22 mph 1013.6mb 81f 80f
7:50 4.5ft 5s 5s 18 22 mph 1013.5mb 81f 80f
7:40  -   -   -  20 22 mph 1013.4mb 81f 80f
7:30 4.5ft  -  5s 20 25 mph 1013.3mb 81f 80f
7:20  -   -   -  20 22 mph 1013.3mb 81f 80f
7:10  -   -   -  20 25 mph 1013.1mb 81f 80f
7:00  -   -   -  20 25 mph 1013mb 81f 80f
6:50 4ft 5s 4s 20 25 mph 1012.9mb 81f 80f
6:40  -   -   -  20 22 mph 1012.8mb 81f 80f
6:30  -   -   -  18 25 mph 1012.6mb 81f 80f
6:20  -   -   -  18 22 mph 1012.5mb 81f 80f
6:10  -   -   -  18 22 mph 1012.5mb 81f 80f
6:00  -   -   -  20 25 mph 1012.3mb 81f 80f
5:50 4.5ft 5s 4s 20 25 mph 1012.1mb 81f 80f
5:40  -   -   -  18 22 mph 1012mb 81f 80f
5:30  -   -   -  20 25 mph 1012mb 81f 80f
5:20  -   -   -  20 25 mph 1012mb 81f 80f
5:10  -   -   -  20 25 mph 1012mb 81f 80f
5:00  -   -   -  20 25 mph 1011.9mb 81f 80f
4:50 4ft 5s 4s 20 25 mph 1012mb 81f 80f
4:40  -   -   -  20 25 mph 1011.9mb 81f 80f
4:30  -   -   -  20 25 mph 1011.8mb 81f 80f
4:20  -   -   -  20 25 mph 1011.8mb 81f 80f
4:10  -   -   -  20 25 mph 1011.8mb 81f 80f
4:00  -   -   -  18 25 mph 1011.8mb 81f 80f
3:50 4ft 5s 5s 18 20 mph 1011.6mb 81f 80f
3:40  -   -   -  18 20 mph 1011.6mb 81f 80f
3:30  -   -   -  18 20 mph 1011.6mb 81f 80f
3:20  -   -   -  18 22 mph 1011.6mb 81f 80f
3:10  -   -   -  18 22 mph 1011.6mb - -
3:00  -   -   -  18 22 mph 1011.6mb 81f 80f
2:50 3.5ft 6s 4s 18 20 mph 1011.6mb 81f 80f
2:40 3.5ft  -  4s 16 20 mph 1011.6mb 81f 80f
2:30  -   -   -  18 22 mph 1011.6mb 81f 80f
2:20  -   -   -  18 20 mph 1011.6mb 81f 80f
2:10  -   -   -  18 22 mph 1011.8mb 81f 80f
2:00  -   -   -  18 20 mph 1011.9mb 81f 80f
1:50 4ft 6s 5s 18 20 mph 1012mb 81f 80f
1:40 4ft  -  5s 18 22 mph 1012mb 81f 80f
1:30  -   -   -  18 20 mph 1012.3mb 81f 80f
1:20  -   -   -  18 20 mph 1012.4mb 81f 80f
1:10  -   -   -  18 20 mph 1012.6mb 81f 80f
1:00  -   -   -  18 20 mph 1012.8mb 81f 80f
12:50 4ft 5s 5s 16 22 mph 1013mb 81f 80f
12:40  -   -   -  18 20 mph 1013mb 81f 80f
12:30  -   -   -  18 20 mph 1013.4mb - -
12:20  -   -   -  18 20 mph 1013.5mb 81f 80f
12:10  -   -   -  18 20 mph 1013.5mb 81f 80f
12:00  -   -   -  18 22 mph 1013.9mb 81f 80f
11:50 3.5ft 5s 5s 16 20 mph 1014mb 81f 80f
11:40 3.5ft  -  5s 16 20 mph 1014.3mb 81f 80f
11:30  -   -   -  16 20 mph 1014.5mb - 80f
11:20  -   -   -  16 20 mph 1014.6mb 81f 80f
11:10  -   -   -  16 20 mph 1014.6mb 81f 80f
11:00  -   -   -  16 18 mph 1015mb 81f 80f
10:50 3.5ft 5s 5s 16 20 mph 1015mb 81f 80f
10:40 3.5ft  -  5s 16 20 mph 1015.3mb 81f 80f
10:30  -   -   -  16 20 mph 1015.3mb 81f 80f
10:20  -   -   -  16 18 mph 1015.4mb 81f 80f
10:10  -   -   -  16 18 mph 1015.4mb 81f 80f
10:00  -   -   -  16 20 mph 1015.5mb 81f 80f
9:50 3.5ft 5s 5s 16 18 mph 1015.5mb 81f 80f
9:40 3.5ft  -  5s 16 20 mph 1015.4mb 81f 80f
9:30  -   -   -  16 20 mph 1015.3mb 81f 80f
9:20  -   -   -  16 20 mph 1015.3mb 81f 80f
9:10  -   -   -  16 20 mph 1015.1mb 81f 80f
9:00  -   -   -  16 18 mph 1015mb 81f 80f
8:50 4ft 5s 5s 16 18 mph 1015mb 81f 80f
8:40  -   -   -  16 18 mph 1014.9mb 81f 80f
8:30  -   -   -  13 18 mph 1014.6mb 81f 80f
8:20  -   -   -  16 18 mph 1014.5mb 81f 80f
8:10  -   -   -  16 18 mph 1014.3mb 81f 80f
8:00  -   -   -  16 20 mph 1014.1mb 81f 80f
7:50 3.5ft 6s 5s 16 20 mph 1014mb 81f 80f
7:40 3.5ft  -  5s 16 20 mph 1014mb 81f 80f
7:30  -   -   -  16 20 mph 1013.6mb 81f 80f
7:20  -   -   -  16 20 mph 1013.5mb 81f 80f
7:10  -   -   -  16 20 mph 1013.4mb - 80f
7:00  -   -   -  16 20 mph 1013.1mb 81f 80f
6:50 4ft 5s 5s 18 20 mph 1013mb 81f 80f
6:40  -   -   -  16 20 mph 1013mb 81f 80f
6:30  -   -   -  16 20 mph 1012.9mb 81f 80f
6:20  -   -   -  16 20 mph 1012.9mb 81f 80f
6:10  -   -   -  16 20 mph 1012.8mb 81f 80f
6:00  -   -   -  16 20 mph 1012.6mb 81f 80f
5:50 4.5ft 5s 5s 16 20 mph 1012.5mb 81f 80f
5:40 4.5ft  -  5s 16 20 mph 1012.4mb 81f 80f
5:30  -   -   -  16 20 mph 1012.3mb 81f 80f
5:20  -   -   -  16 20 mph 1012.1mb 81f 80f
5:10  -   -   -  16 20 mph 1012mb 81f 79f
5:00  -   -   -  16 20 mph 1012mb 81f 79f
4:50 4.5ft 5s 5s 16 20 mph 1012mb 81f 80f
4:40  -   -   -  16 20 mph 1011.9mb 81f 80f
4:30  -   -   -  16 20 mph 1011.8mb 81f 79f
4:20  -   -   -  16 20 mph 1011.8mb 81f 79f
4:10  -   -   -  18 22 mph 1011.5mb 81f 79f
4:00  -   -   -  18 22 mph 1011.5mb 81f 79f
3:50 4.5ft 5s 5s 18 20 mph 1011.5mb 81f 79f
3:40  -   -   -  18 20 mph 1011.5mb 81f 79f
3:30  -   -   -  18 22 mph 1011.5mb 81f 79f
3:20  -   -   -  18 22 mph 1011.5mb 81f 79f
3:10  -   -   -  20 25 mph 1011.4mb 81f 79f
3:00  -   -   -  20 25 mph 1011mb 81f 79f
2:50 4ft 5s 4s 20 27 mph 1011mb 81f 79f
2:40  -   -   -  20 25 mph 1011mb 81f 79f
2:30  -   -   -  20 25 mph 1011mb 81f 79f
2:20  -   -   -  20 25 mph 1011.4mb 81f 79f
2:10  -   -   -  20 25 mph 1011.5mb 81f 79f
2:00  -   -   -  20 25 mph 1011.4mb 81f 79f
1:50 3.5ft 5s 4s 20 25 mph 1011.8mb 81f 79f
1:40 3.5ft  -  4s 18 25 mph 1012mb 81f 79f
1:30  -   -   -  20 25 mph 1012.1mb 81f 79f
1:20  -   -   -  20 22 mph 1012.4mb 81f 79f
1:10  -   -   -  18 22 mph 1012.5mb 81f 80f
1:00  -   -   -  18 22 mph 1012.6mb 81f 79f
12:50 3.5ft 4s 5s 18 22 mph 1012.8mb 81f 80f
12:40  -   -   -  18 22 mph 1013mb 81f 80f
12:30  -   -   -  18 22 mph 1013mb 81f 80f
12:20  -   -   -  18 22 mph 1013.1mb 81f 80f
12:10  -   -   -  18 22 mph 1013.4mb 81f 80f
12:00  -   -   -  18 25 mph 1013.5mb 81f 80f
jue 01/19 11:50 3.5ft 6s 4s 18 22 mph 1013.6mb 81f 80f
11:40 3.5ft  -  4s 18 22 mph 1013.8mb 81f 80f
11:30  -   -   -  18 20 mph 1014mb 81f 80f
11:20  -   -   -  18 22 mph 1014.1mb 81f 80f
11:10  -   -   -  18 22 mph 1014.5mb 81f 80f
11:00  -   -   -  18 20 mph 1014.5mb 81f 80f
10:50 3.5ft  -  5s 18 22 mph 1014.5mb 81f 80f
10:40 3.5ft  -  5s 16 22 mph 1014.6mb 81f 80f
10:30  -   -   -  13 18 mph 1014.9mb 81f 79f
10:20  -   -   -  18 22 mph 1014.9mb 81f 80f
10:10  -   -   -  16 18 mph 1015mb 81f 80f
10:00  -   -   -  16 20 mph 1015mb 81f 80f
9:50 3ft 6s 4s 16 20 mph 1015mb 81f 79f
9:40 3ft  -  4s 16 18 mph 1015mb 81f 79f
9:30  -   -   -  16 20 mph 1015.1mb 81f 79f
9:20  -   -   -  16 18 mph 1015.3mb 81f 79f
9:10  -   -   -  16 20 mph 1015.3mb 81f 80f
9:00  -   -   -  16 18 mph 1015.3mb 81f 79f
8:50 3.5ft 5s 5s 16 18 mph 1015.1mb 81f 79f
8:40 3.5ft  -  5s 16 18 mph 1015mb 81f 79f
8:30  -   -   -  16 18 mph 1015mb 81f 79f
8:20  -   -   -  13 18 mph 1015mb 81f 79f
8:10  -   -   -  16 18 mph 1014.8mb 81f 79f
8:00  -   -   -  13 16 mph 1014.6mb 81f 79f
7:50 3.5ft 6s 5s 13 16 mph 1014.5mb 81f 79f
7:40  -   -   -  13 16 mph 1014.5mb 81f 79f
7:30  -   -   -  13 16 mph 1014.5mb 81f 78f
7:20  -   -   -  13 18 mph 1014.5mb 81f 79f
7:10  -   -   -  13 18 mph 1014.5mb 81f 78f